< Typhoon 198425 1984 Season Typhoon 198427 >
Typhoon 198426 (CLARA)
General InformationTrack Information on Google MapsDetailed Wind InformationList of All Images || Disaster Info.ResourceGoogle EarthGE AnimationAtom FeedGeoJSON
Detalied Best Track (Time Zone = UTC)
Year Month Day Hour Lat. Long. Pressure (hPa) Wind (kt) Class Image Chart
1984 11 14 00 5.5 156.5 1002 0 2 Image Chart
1984 11 14 06 5.6 155.4 1002 0 2 Image Chart
1984 11 14 12 6.0 154.2 1002 0 2 Image Chart
1984 11 14 18 6.5 153.0 1002 0 2 Image Chart
1984 11 15 00 7.2 152.1 1000 40 3 Image Chart
1984 11 15 06 7.9 150.8 996 40 3 Image Chart
1984 11 15 12 8.4 148.8 992 40 3 Image Chart
1984 11 15 18 8.8 147.4 990 40 3 Image Chart
1984 11 16 00 9.1 145.9 985 60 4 Image Chart
1984 11 16 06 9.5 144.5 980 60 4 Image Chart
1984 11 16 12 9.9 142.6 990 60 4 Image Chart
1984 11 16 18 10.2 141.4 990 60 4 Image Chart
1984 11 17 00 10.4 140.3 975 70 5 Image Chart
1984 11 17 06 11.0 138.7 970 75 5 Image Chart
1984 11 17 12 11.4 137.4 965 85 5 Image Chart
1984 11 17 18 11.9 136.1 960 90 5 Image Chart
1984 11 18 00 12.4 134.6 960 90 5 Image Chart
1984 11 18 06 13.1 133.7 960 90 5 Image Chart
1984 11 18 12 14.1 133.1 955 90 5 Image Chart
1984 11 18 18 14.8 132.6 960 85 5 Image Chart
1984 11 19 00 15.8 132.4 960 70 5 Image Chart
1984 11 19 06 17.1 132.2 955 75 5 Image Chart
1984 11 19 12 18.6 132.4 945 75 5 Image Chart
1984 11 19 18 19.8 132.6 945 75 5 Image Chart
1984 11 20 00 20.8 133.2 940 85 5 Image Chart
1984 11 20 06 22.2 134.6 940 85 5 Image Chart
1984 11 20 12 23.5 136.0 955 80 5 Image Chart
1984 11 20 18 24.8 137.8 965 70 5 Image Chart
1984 11 21 00 25.7 140.8 980 55 4 Image Chart
1984 11 21 06 26.0 144.0 985 0 6 Image Chart
1984 11 21 12 26.0 146.0 988 0 6 Image Chart
1984 11 21 18 26.5 148.0 990 0 6 Image Chart
1984 11 22 00 28.0 151.0 996 0 6 Image Chart
1984 11 22 06 28.0 153.0 1000 0 6 Image Chart
1984 11 22 12 28.0 155.0 1004 0 6 Image Chart
1984 11 22 18 27.5 157.0 1008 0 6 Image Chart
1984 11 23 00 27.0 158.5 1012 0 6 Image Chart
Japan Meteorological Agency Best Track Data | Correction Date : 1992-10-21
< Typhoon 198425 1984 Season Typhoon 198427 >

Help